| Date | Time | Temp. (oF) | Dew Point (oF) | Rel. Hum. (%) | Press. (in.) | Wind Dir. | Wind Speed (mph) | Hourly Rainfall (in.) |
|
|---|---|---|---|---|---|---|---|---|---|
| 1 | 05/04 | 00:00 | 67 | 62 | 86 | 29.81 | W | 0 | 0.00 |
| 2 | 05/03 | 23:00 | 69 | 62 | 80 | 29.81 | WNW | 0 | 0.00 |
| 3 | 05/03 | 22:00 | 70 | 62 | 78 | 29.79 | WSW | 2 | 0.00 |
| 4 | 05/03 | 21:00 | 72 | 61 | 70 | 29.77 | WSW | 0 | 0.00 |
| 5 | 05/03 | 20:00 | 78 | 61 | 57 | 29.74 | WSW | 3 | 0.00 |
| 6 | 05/03 | 19:00 | 79 | 61 | 55 | 29.73 | WSW | 3 | 0.00 |
| 7 | 05/03 | 18:00 | 79 | 62 | 58 | 29.74 | WNW | 3 | 0.00 |
| 8 | 05/03 | 17:00 | 79 | 63 | 59 | 29.73 | W | 4 | 0.00 |
| 9 | 05/03 | 16:00 | 78 | 61 | 57 | 29.74 | N | 5 | 0.00 |
| 10 | 05/03 | 15:00 | 74 | 63 | 71 | 29.75 | SW | 2 | 0.00 |
| 11 | 05/03 | 14:00 | 75 | 63 | 67 | 29.75 | NW | 14 | 0.00 |
| 12 | 05/03 | 13:00 | 81 | 69 | 68 | 29.71 | SW | 7 | 0.00 |
| 13 | 05/03 | 12:00 | 80 | 70 | 74 | 29.71 | W | 10 | 0.00 |
| 14 | 05/03 | 11:00 | 75 | 72 | 91 | 29.72 | WSW | 6 | 0.00 |
| 15 | 05/03 | 10:00 | 72 | 70 | 94 | 29.73 | SSW | 4 | 0.00 |
| 16 | 05/03 | 09:00 | 70 | 69 | 98 | 29.71 | SW | 4 | 0.00 |
| 17 | 05/03 | 08:00 | 68 | 67 | 99 | 29.74 | SSW | 3 | 0.18 |
| 18 | 05/03 | 07:00 | 68 | 67 | 99 | 29.75 | SSW | 5 | 0.51 |
| 19 | 05/03 | 06:00 | 69 | 68 | 99 | 29.74 | NW | 2 | 0.04 |
| 20 | 05/03 | 05:00 | 69 | 68 | 99 | 29.72 | SSW | 3 | 0.04 |
| 21 | 05/03 | 04:00 | 69 | 68 | 98 | 29.74 | SSW | 2 | 0.03 |
| 22 | 05/03 | 03:00 | 70 | 69 | 97 | 29.75 | WNW | 0 | 0.09 |
| 23 | 05/03 | 02:00 | 71 | 70 | 97 | 29.74 | N | 4 | 0.01 |
| 24 | 05/03 | 01:00 | 71 | 69 | 95 | 29.76 | E | 2 | 0.00 |